Time;durP1;ratioP1;P1;durP2;ratioP2;P2;SDS_P1;SDS_P2;PMS_P1;PMS_P2;Temp;Humidity;BMP_temperature;BMP_pressure;BME280_temperature;BME280_humidity;BME280_pressure;Samples;Min_cycle;Max_cycle;Signal;HPM_P1;HPM_P2
2022/03/08 00:00:42;;;;;;;13.32;7.97;;;;;;;1.41;57.62;93576.69;5017482;28;20043;-77
2022/03/08 00:03:08;;;;;;;14.25;8.77;;;;;;;1.48;57.38;93579.84;5026472;28;20411;-77
2022/03/08 00:05:33;;;;;;;12.18;7.32;;;;;;;1.24;57.75;93570.91;5017905;28;20055;-77
2022/03/08 00:08:00;;;;;;;14.18;8.55;;;;;;;1.28;57.73;93566.72;5016231;28;20029;-76
2022/03/08 00:10:26;;;;;;;12.20;7.63;;;;;;;1.24;57.89;93566.47;5021055;28;20046;-73
2022/03/08 00:12:58;;;;;;;11.70;7.05;;;;;;;1.25;57.91;93577.72;5026652;28;20044;-75
2022/03/08 00:15:25;;;;;;;14.05;7.53;;;;;;;1.23;58.14;93566.72;5025030;28;20037;-77
2022/03/08 00:18:00;;;;;;;12.77;7.85;;;;;;;1.22;57.88;93578.25;5022307;28;20104;-72
2022/03/08 00:20:26;;;;;;;13.18;7.25;;;;;;;0.98;58.77;93587.66;5037800;28;20041;-71
2022/03/08 00:22:51;;;;;;;15.30;8.57;;;;;;;1.01;58.63;93584.50;5023909;28;20017;-72
2022/03/08 00:25:17;;;;;;;13.48;8.00;;;;;;;0.95;58.62;93551.47;5020759;28;20115;-71
2022/03/08 00:27:45;;;;;;;14.55;8.52;;;;;;;1.11;59.16;93579.28;5019683;28;20049;-73
2022/03/08 00:30:17;;;;;;;12.98;8.75;;;;;;;1.18;59.07;93567.50;5013961;28;20293;-71
2022/03/08 00:32:43;;;;;;;11.60;7.05;;;;;;;1.24;58.37;93552.56;5023268;28;20120;-72
2022/03/08 00:35:09;;;;;;;14.18;8.27;;;;;;;1.41;57.63;93554.94;5025190;28;20021;-72
2022/03/08 00:37:35;;;;;;;15.82;8.30;;;;;;;1.52;57.19;93574.88;5023871;28;20020;-72
2022/03/08 00:40:01;;;;;;;16.92;7.75;;;;;;;1.43;56.98;93574.59;5019530;28;20038;-71
2022/03/08 00:42:27;;;;;;;11.02;7.85;;;;;;;1.31;57.02;93555.72;5033261;28;20367;-75
2022/03/08 00:44:52;;;;;;;15.82;8.02;;;;;;;1.28;57.03;93560.72;5021647;28;20037;-73
2022/03/08 00:47:18;;;;;;;13.60;7.53;;;;;;;1.31;57.35;93570.66;5022494;28;20025;-72
2022/03/08 00:49:43;;;;;;;15.73;8.70;;;;;;;1.17;56.87;93552.06;5017541;28;20025;-73
2022/03/08 00:52:09;;;;;;;14.13;8.18;;;;;;;1.17;57.01;93552.84;5037388;28;20057;-72
2022/03/08 00:54:36;;;;;;;15.02;8.70;;;;;;;1.26;56.96;93565.41;5016523;28;20040;-75
2022/03/08 00:57:02;;;;;;;13.82;8.32;;;;;;;1.23;57.37;93564.09;5023745;28;20530;-71
2022/03/08 00:59:27;;;;;;;15.75;8.25;;;;;;;1.07;57.04;93541.56;5021325;28;20405;-75
2022/03/08 01:01:52;;;;;;;15.45;8.05;;;;;;;1.27;57.07;93556.50;5016433;28;20534;-71
2022/03/08 01:04:18;;;;;;;18.17;8.40;;;;;;;1.17;57.03;93546.81;5021621;28;20033;-72
2022/03/08 01:06:44;;;;;;;17.73;9.23;;;;;;;1.25;56.65;93551.53;5017721;28;20127;-72
2022/03/08 01:09:10;;;;;;;16.90;8.52;;;;;;;1.30;56.82;93564.63;5023701;28;20508;-72
2022/03/08 01:11:39;;;;;;;14.25;8.35;;;;;;;1.32;56.57;93561.75;5018913;28;20079;-73
2022/03/08 01:14:07;;;;;;;17.42;8.60;;;;;;;1.19;56.83;93566.44;5021066;28;20603;-73
2022/03/08 01:16:33;;;;;;;15.82;9.52;;;;;;;1.33;56.39;93563.31;5021497;28;20034;-71
2022/03/08 01:18:59;;;;;;;12.95;9.05;;;;;;;1.26;56.42;93547.88;5018087;28;20260;-72
2022/03/08 01:21:24;;;;;;;15.15;8.23;;;;;;;1.43;56.43;93556.25;5021635;28;20064;-73
2022/03/08 01:23:50;;;;;;;16.00;8.02;;;;;;;1.32;56.26;93541.59;5017103;28;20157;-74
2022/03/08 01:26:16;;;;;;;15.60;8.43;;;;;;;1.47;55.81;93538.94;5018835;28;20487;-71
2022/03/08 01:28:41;;;;;;;15.00;8.35;;;;;;;1.61;55.99;93560.97;5015518;28;20033;-72
2022/03/08 01:31:07;;;;;;;15.80;9.38;;;;;;;1.56;55.76;93552.31;5020315;28;20349;-73
2022/03/08 01:33:33;;;;;;;15.63;8.10;;;;;;;1.59;55.67;93542.09;5021892;28;20037;-72
2022/03/08 01:35:59;;;;;;;20.65;8.32;;;;;;;1.40;55.35;93522.72;5016796;28;20040;-72
2022/03/08 01:38:25;;;;;;;12.95;7.43;;;;;;;1.72;54.89;93561.72;5019863;28;20387;-75
2022/03/08 01:40:51;;;;;;;14.07;8.35;;;;;;;1.41;55.25;93542.63;5020092;28;20397;-71
2022/03/08 01:43:17;;;;;;;14.38;9.05;;;;;;;1.47;55.00;93554.66;5020065;28;20850;-72
2022/03/08 01:45:43;;;;;;;17.60;9.13;;;;;;;1.36;55.49;93563.59;5023154;28;20373;-72
2022/03/08 01:48:09;;;;;;;17.50;10.05;;;;;;;1.17;55.65;93545.00;5031332;28;20203;-73
2022/03/08 01:50:34;;;;;;;15.38;9.10;;;;;;;1.34;55.10;93557.81;5017255;28;20537;-73
2022/03/08 01:53:00;;;;;;;18.60;8.90;;;;;;;1.29;55.53;93552.56;5019992;28;20780;-71
2022/03/08 01:55:25;;;;;;;18.50;9.77;;;;;;;1.33;55.11;93558.84;5021466;28;20500;-72
2022/03/08 01:57:52;;;;;;;17.70;10.30;;;;;;;1.29;55.17;93551.78;5014307;28;20045;-71
2022/03/08 02:00:21;;;;;;;18.02;8.68;;;;;;;1.10;55.73;93541.81;5023569;28;20029;-71
2022/03/08 02:02:47;;;;;;;17.65;10.10;;;;;;;1.22;55.64;93552.06;5024680;28;20037;-77
2022/03/08 02:05:12;;;;;;;21.45;10.13;;;;;;;1.16;55.42;93540.00;5022398;28;20033;-76
2022/03/08 02:07:39;;;;;;;19.58;10.07;;;;;;;1.04;55.43;93528.97;5019308;28;20029;-75
2022/03/08 02:10:06;;;;;;;18.73;11.20;;;;;;;0.93;55.84;93543.13;5026351;28;20490;-77
2022/03/08 02:12:32;;;;;;;18.10;8.50;;;;;;;0.70;56.91;93532.06;5024144;28;20071;-75
2022/03/08 02:14:58;;;;;;;19.42;10.27;;;;;;;0.62;56.78;93532.56;5020718;28;21049;-75
2022/03/08 02:17:23;;;;;;;20.77;9.30;;;;;;;0.68;56.92;93557.72;5026121;28;20040;-75
2022/03/08 02:19:49;;;;;;;17.92;9.68;;;;;;;0.75;56.95;93542.53;5026891;28;20662;-76
2022/03/08 02:22:14;;;;;;;13.77;10.00;;;;;;;0.75;56.96;93539.94;5028647;28;20565;-75
2022/03/08 02:24:40;;;;;;;20.90;9.48;;;;;;;0.88;56.64;93561.44;5024126;28;20479;-75
2022/03/08 02:27:07;;;;;;;18.90;9.10;;;;;;;0.78;56.97;93557.75;5019095;28;20037;-75
2022/03/08 02:29:33;;;;;;;17.27;9.65;;;;;;;0.67;57.52;93540.44;5028291;28;20069;-75
2022/03/08 02:31:58;;;;;;;19.10;9.02;;;;;;;1.03;57.04;93561.47;5012991;28;20086;-74
2022/03/08 02:34:24;;;;;;;16.25;9.82;;;;;;;1.18;56.65;93566.72;5023452;28;20642;-75
2022/03/08 02:37:11;;;;;;;16.95;8.60;;;;;;;0.78;56.85;93504.59;5026674;28;20064;-74
2022/03/08 02:39:37;;;;;;;18.58;10.73;;;;;;;1.36;55.63;93568.03;5021055;28;20172;-71
2022/03/08 02:42:09;;;;;;;17.88;9.63;;;;;;;0.93;55.47;93499.41;5027911;28;20052;-75
2022/03/08 02:44:35;;;;;;;16.50;9.80;;;;;;;1.11;55.63;93566.19;5044962;28;20037;-72
2022/03/08 02:47:03;;;;;;;18.20;10.52;;;;;;;1.07;55.93;93570.38;5028371;28;20105;-74
2022/03/08 02:49:28;;;;;;;15.68;10.52;;;;;;;0.93;56.93;93569.31;5021967;28;20041;-73
2022/03/08 02:51:56;;;;;;;20.77;10.05;;;;;;;0.90;56.96;93556.72;5025374;28;20071;-72
2022/03/08 02:54:22;;;;;;;19.73;11.63;;;;;;;1.09;56.74;93574.28;5026384;28;20045;-73
2022/03/08 02:56:47;;;;;;;17.52;10.38;;;;;;;1.07;56.54;93554.66;5030271;28;20033;-72
2022/03/08 02:59:23;;;;;;;15.93;9.13;;;;;;;1.22;56.31;93573.03;5021566;28;20090;-75
2022/03/08 03:01:49;;;;;;;17.88;8.63;;;;;;;1.31;55.86;93571.44;5027780;28;20076;-72
2022/03/08 03:04:14;;;;;;;14.90;9.18;;;;;;;1.19;55.56;93563.03;5040466;28;20484;-73
2022/03/08 03:06:40;;;;;;;15.55;9.82;;;;;;;1.05;56.01;93567.22;5022869;28;20064;-72
2022/03/08 03:09:06;;;;;;;19.80;9.35;;;;;;;0.85;55.95;93510.38;5029774;28;20041;-72
2022/03/08 03:11:31;;;;;;;19.92;9.50;;;;;;;1.28;55.99;93587.69;5029805;28;20071;-73
2022/03/08 03:13:57;;;;;;;17.63;9.70;;;;;;;1.21;55.32;93555.72;5021691;28;20031;-72
2022/03/08 03:16:22;;;;;;;16.48;10.52;;;;;;;1.28;55.63;93571.94;5021805;28;20507;-73
2022/03/08 03:18:47;;;;;;;15.43;9.95;;;;;;;1.37;55.66;93588.75;5022735;28;20420;-72
2022/03/08 03:21:13;;;;;;;14.63;8.70;;;;;;;1.36;55.39;93600.28;5018568;28;20091;-71
2022/03/08 03:23:38;;;;;;;14.38;9.07;;;;;;;1.30;55.37;93577.72;5019005;28;20771;-73
2022/03/08 03:26:03;;;;;;;15.50;9.13;;;;;;;1.02;56.01;93567.75;5026779;28;20080;-71
2022/03/08 03:28:29;;;;;;;16.80;9.50;;;;;;;1.24;56.05;93597.09;5014762;28;20026;-72
2022/03/08 03:30:54;;;;;;;15.55;9.27;;;;;;;1.24;56.02;93591.88;5024409;28;20531;-71
2022/03/08 03:33:22;;;;;;;23.65;10.75;;;;;;;1.21;56.03;93595.00;5023906;28;20124;-75
2022/03/08 03:35:47;;;;;;;15.50;9.60;;;;;;;1.13;56.53;93596.28;5030455;28;20039;-73
2022/03/08 03:38:12;;;;;;;19.50;9.75;;;;;;;1.12;56.68;93593.97;5023940;28;20028;-72
2022/03/08 03:40:38;;;;;;;19.65;10.52;;;;;;;0.94;56.87;93566.41;5031630;28;20037;-72
2022/03/08 03:43:03;;;;;;;23.50;12.60;;;;;;;1.18;56.91;93592.94;5022808;28;20395;-72
2022/03/08 03:45:29;;;;;;;17.92;10.48;;;;;;;1.32;56.40;93595.81;5020051;28;20734;-73
2022/03/08 03:47:54;;;;;;;20.20;10.38;;;;;;;1.25;56.00;93562.00;5020856;28;20140;-70
2022/03/08 03:50:19;;;;;;;21.77;10.27;;;;;;;1.31;55.93;93571.44;5019663;28;20052;-71
2022/03/08 03:52:45;;;;;;;17.75;9.82;;;;;;;1.46;55.67;93589.00;5027114;28;20754;-71
2022/03/08 03:55:12;;;;;;;19.95;10.73;;;;;;;1.45;55.64;93585.59;5024172;28;20048;-73
2022/03/08 03:57:38;;;;;;;18.90;10.55;;;;;;;0.86;55.89;93561.69;5018370;28;20034;-71
2022/03/08 04:00:05;;;;;;;18.63;9.18;;;;;;;1.06;56.77;93581.91;5024830;28;20037;-74
2022/03/08 04:02:31;;;;;;;24.00;11.00;;;;;;;1.12;56.28;93567.75;5021334;28;20495;-71
2022/03/08 04:04:56;;;;;;;20.45;11.25;;;;;;;1.23;56.19;93585.03;5021576;28;20538;-74
2022/03/08 04:07:21;;;;;;;17.73;9.40;;;;;;;1.19;55.86;93576.94;5024272;28;20569;-76
2022/03/08 04:09:47;;;;;;;17.40;9.82;;;;;;;1.08;56.33;93571.94;5014698;28;20122;-76
2022/03/08 04:12:12;;;;;;;21.10;9.90;;;;;;;1.25;56.29;93598.69;5034417;28;20037;-75
2022/03/08 04:14:40;;;;;;;21.80;11.35;;;;;;;1.28;56.31;93605.25;5020920;28;20037;-74
2022/03/08 04:17:05;;;;;;;17.45;10.80;;;;;;;1.04;56.25;93555.16;5019212;28;20032;-78
2022/03/08 04:19:30;;;;;;;19.38;10.60;;;;;;;1.27;56.21;93596.59;5021235;28;20471;-77
2022/03/08 04:21:56;;;;;;;22.77;10.57;;;;;;;1.28;56.15;93600.78;5022508;28;20049;-77
2022/03/08 04:24:21;;;;;;;26.88;14.25;;;;;;;1.26;56.43;93595.03;5025945;28;20033;-77
2022/03/08 04:26:47;;;;;;;19.35;10.77;;;;;;;1.38;56.21;93592.13;5017519;28;20515;-78
2022/03/08 04:29:12;;;;;;;21.67;12.35;;;;;;;1.45;56.17;93598.72;5041363;28;20025;-75
2022/03/08 04:31:40;;;;;;;30.13;16.30;;;;;;;1.38;55.68;93573.78;5027911;28;20041;-75
2022/03/08 04:34:05;;;;;;;28.35;13.18;;;;;;;1.55;55.43;93588.22;5024501;28;20703;-75
2022/03/08 04:36:31;;;;;;;21.30;11.95;;;;;;;1.45;55.32;93576.94;5023785;28;20037;-75
2022/03/08 04:38:56;;;;;;;26.70;14.55;;;;;;;1.46;55.22;93574.09;5028893;28;20092;-75
2022/03/08 04:41:21;;;;;;;23.65;13.07;;;;;;;1.43;55.84;93594.75;5022221;28;20148;-75
2022/03/08 04:43:47;;;;;;;23.02;13.90;;;;;;;1.39;56.03;93585.84;5020221;28;20592;-75
2022/03/08 04:46:12;;;;;;;26.33;12.80;;;;;;;1.44;55.07;93578.78;5024751;28;20048;-75
2022/03/08 04:48:41;;;;;;;29.10;13.98;;;;;;;1.50;55.45;93588.22;5017757;28;20061;-75
2022/03/08 04:51:09;;;;;;;20.45;11.15;;;;;;;1.68;55.03;93598.19;5029039;28;20072;-75
2022/03/08 04:53:34;;;;;;;26.48;12.38;;;;;;;1.60;55.25;93585.63;5022365;28;20113;-75
2022/03/08 04:56:01;;;;;;;25.88;11.77;;;;;;;1.49;55.35;93585.88;5020520;28;22697;-75
2022/03/08 04:58:26;;;;;;;22.45;11.95;;;;;;;1.45;55.17;93561.22;5022434;28;20025;-75
2022/03/08 05:00:52;;;;;;;20.15;11.15;;;;;;;1.28;55.69;93566.72;5023735;28;20032;-76
2022/03/08 05:03:17;;;;;;;22.40;10.50;;;;;;;1.52;55.30;93599.22;5018330;28;20488;-72
2022/03/08 05:05:43;;;;;;;22.33;11.93;;;;;;;1.26;55.72;93549.69;5022802;28;20041;-75
2022/03/08 05:08:08;;;;;;;20.30;10.23;;;;;;;1.01;55.71;93542.59;5019634;28;20545;-76
2022/03/08 05:10:33;;;;;;;20.27;11.25;;;;;;;1.17;55.55;93570.41;5026783;28;20025;-77
2022/03/08 05:13:00;;;;;;;17.38;11.18;;;;;;;1.38;55.65;93597.38;5033065;28;20636;-75
2022/03/08 05:15:26;;;;;;;21.23;9.35;;;;;;;1.26;55.64;93589.00;5029447;28;20032;-75
2022/03/08 05:17:51;;;;;;;22.45;11.85;;;;;;;1.15;55.55;93577.72;5021047;28;20040;-75
2022/03/08 05:20:17;;;;;;;18.15;9.23;;;;;;;1.26;56.01;93587.16;5022212;28;20037;-75
2022/03/08 05:22:42;;;;;;;21.70;10.20;;;;;;;1.37;56.00;93591.38;5020005;28;20642;-77
2022/03/08 05:25:08;;;;;;;24.77;10.75;;;;;;;1.25;55.86;93603.94;5021964;28;20949;-75
2022/03/08 05:27:34;;;;;;;18.23;8.90;;;;;;;1.19;56.13;93597.88;5023035;28;20446;-75
2022/03/08 05:29:59;;;;;;;17.75;9.20;;;;;;;1.13;56.75;93595.53;5023110;28;20709;-75
2022/03/08 05:32:24;;;;;;;17.80;9.88;;;;;;;0.94;56.42;93557.75;5020290;28;20041;-75
2022/03/08 05:34:50;;;;;;;24.67;10.48;;;;;;;0.85;57.08;93578.44;5024737;28;20108;-71
2022/03/08 05:37:15;;;;;;;25.92;10.38;;;;;;;1.19;57.17;93599.72;5022684;28;20293;-71
2022/03/08 05:39:41;;;;;;;23.02;10.55;;;;;;;1.17;56.60;93589.53;5018383;28;20063;-72
2022/03/08 05:42:07;;;;;;;22.58;10.15;;;;;;;1.00;56.61;93585.53;5019204;28;20460;-72
2022/03/08 05:44:32;;;;;;;25.52;12.50;;;;;;;1.03;56.79;93592.91;5026884;28;20496;-74
2022/03/08 05:46:58;;;;;;;22.75;11.43;;;;;;;1.04;56.87;93595.25;5016773;28;20472;-75
2022/03/08 05:49:23;;;;;;;18.67;10.35;;;;;;;0.98;56.97;93604.16;5016699;28;20128;-73
2022/03/08 05:51:49;;;;;;;19.27;9.40;;;;;;;0.76;57.43;93606.94;5028097;28;20098;-73
2022/03/08 05:54:14;;;;;;;18.42;11.68;;;;;;;0.92;57.85;93609.63;5019865;28;20035;-73
2022/03/08 05:56:39;;;;;;;22.35;11.10;;;;;;;0.92;57.31;93612.25;5021317;28;20206;-73
2022/03/08 05:59:05;;;;;;;25.58;11.88;;;;;;;0.97;57.51;93614.88;5020090;28;20167;-72
2022/03/08 06:01:30;;;;;;;21.20;11.15;;;;;;;0.75;57.62;93589.66;5022495;28;20233;-72
2022/03/08 06:03:56;;;;;;;24.23;11.38;;;;;;;0.70;57.78;93581.78;5030017;28;20093;-74
2022/03/08 06:06:21;;;;;;;19.92;11.38;;;;;;;0.74;57.66;93577.63;5017425;28;20176;-74
2022/03/08 06:08:49;;;;;;;19.92;11.27;;;;;;;0.73;57.87;93612.72;5023748;28;20045;-73
2022/03/08 06:11:14;;;;;;;19.15;10.45;;;;;;;0.63;58.17;93594.34;5018620;28;20086;-77
2022/03/08 06:13:40;;;;;;;19.40;9.65;;;;;;;0.62;58.43;93599.84;5020414;28;20037;-77
2022/03/08 06:16:05;;;;;;;21.20;10.80;;;;;;;0.62;58.69;93621.56;5022482;28;20032;-77
2022/03/08 06:18:30;;;;;;;21.05;10.63;;;;;;;0.62;58.87;93605.06;5035766;28;20586;-78
2022/03/08 06:20:56;;;;;;;21.15;10.50;;;;;;;0.87;58.65;93625.31;5022892;28;20116;-76
2022/03/08 06:23:21;;;;;;;21.92;11.57;;;;;;;0.62;58.56;93603.25;5022270;28;20513;-76
2022/03/08 06:25:47;;;;;;;27.10;13.00;;;;;;;0.80;57.95;93601.97;5025814;28;20025;-78
2022/03/08 06:28:12;;;;;;;19.95;11.57;;;;;;;0.87;58.11;93633.97;5025270;28;20033;-77
2022/03/08 06:30:39;;;;;;;23.35;11.68;;;;;;;0.52;58.06;93603.19;5029157;28;20515;-77
2022/03/08 06:33:04;;;;;;;22.92;11.73;;;;;;;0.38;58.61;93604.72;5021880;28;20067;-77
2022/03/08 06:35:31;;;;;;;21.85;12.25;;;;;;;0.65;58.88;93628.88;5023499;28;20498;-72
2022/03/08 06:37:57;;;;;;;27.05;12.82;;;;;;;0.48;58.72;93610.00;5025926;28;20030;-73
2022/03/08 06:40:23;;;;;;;22.52;10.10;;;;;;;0.78;58.79;93625.03;5017997;28;20034;-72
2022/03/08 06:42:49;;;;;;;22.35;12.13;;;;;;;0.70;58.61;93618.44;5025906;28;20029;-72
2022/03/08 06:45:15;;;;;;;24.52;11.25;;;;;;;0.66;59.03;93606.13;5029852;28;20516;-74
2022/03/08 06:47:40;;;;;;;21.20;12.63;;;;;;;0.73;58.86;93617.16;5024388;28;20136;-72
2022/03/08 06:50:07;;;;;;;29.02;13.15;;;;;;;0.92;57.99;93614.84;5034644;28;20028;-73
2022/03/08 06:52:32;;;;;;;23.05;12.43;;;;;;;1.02;58.08;93636.63;5025408;28;20036;-72
2022/03/08 06:54:58;;;;;;;22.75;11.05;;;;;;;0.77;58.11;93610.34;5023490;28;20412;-72
2022/03/08 06:57:24;;;;;;;21.98;11.98;;;;;;;1.02;58.22;93635.84;5025950;28;20037;-72
2022/03/08 06:59:49;;;;;;;25.60;13.15;;;;;;;1.12;58.10;93631.41;5024157;28;20025;-73
2022/03/08 07:02:14;;;;;;;23.55;11.50;;;;;;;1.17;57.54;93620.16;5023327;28;20503;-72
2022/03/08 07:04:40;;;;;;;19.58;10.38;;;;;;;1.01;57.72;93629.03;5023355;28;20044;-72
2022/03/08 07:07:05;;;;;;;23.85;12.95;;;;;;;1.21;58.05;93636.94;5023885;28;20053;-72
2022/03/08 07:09:31;;;;;;;20.73;10.52;;;;;;;1.04;57.47;93637.13;5029663;28;20037;-73
2022/03/08 07:11:56;;;;;;;22.30;11.63;;;;;;;1.07;57.56;93639.25;5022058;28;20969;-71
2022/03/08 07:14:22;;;;;;;30.38;16.02;;;;;;;1.12;56.97;93636.66;5028295;28;20067;-75
2022/03/08 07:16:48;;;;;;;24.63;13.95;;;;;;;1.02;56.96;93641.88;5019644;28;20040;-72
2022/03/08 07:19:14;;;;;;;22.30;10.63;;;;;;;0.78;57.59;93625.03;5025463;28;20048;-72
2022/03/08 07:21:40;;;;;;;15.45;9.02;;;;;;;0.89;57.58;93633.72;5027070;28;20574;-72
2022/03/08 07:24:06;;;;;;;18.52;9.55;;;;;;;0.96;57.25;93634.25;5024916;28;20036;-73
2022/03/08 07:26:31;;;;;;;17.02;8.52;;;;;;;0.63;57.12;93607.44;5032942;28;20581;-73
2022/03/08 07:28:57;;;;;;;12.75;7.10;;;;;;;0.40;57.89;93626.16;5025151;28;20035;-72
2022/03/08 07:31:22;;;;;;;17.17;8.20;;;;;;;0.14;58.36;93612.16;5021781;28;20428;-74
2022/03/08 07:33:48;;;;;;;14.82;8.35;;;;;;;0.43;58.93;93649.22;5022020;28;20045;-72
2022/03/08 07:36:13;;;;;;;20.15;10.38;;;;;;;0.39;58.97;93606.28;5023878;28;20574;-73
2022/03/08 07:38:39;;;;;;;14.00;7.63;;;;;;;0.58;58.21;93627.56;5022041;28;20036;-73
2022/03/08 07:41:05;;;;;;;13.65;8.07;;;;;;;0.50;58.10;93647.13;5025701;28;20026;-71
2022/03/08 07:43:31;;;;;;;17.88;8.25;;;;;;;0.80;57.59;93643.88;5023940;28;20029;-74
2022/03/08 07:45:57;;;;;;;13.95;8.57;;;;;;;0.72;57.33;93642.53;5026056;28;20590;-72
2022/03/08 07:48:22;;;;;;;15.57;8.70;;;;;;;0.84;57.20;93639.69;5023840;28;20291;-71
2022/03/08 07:50:48;;;;;;;15.57;7.93;;;;;;;0.60;57.34;93633.31;5022938;28;20040;-71
2022/03/08 07:53:13;;;;;;;13.48;7.90;;;;;;;0.36;57.24;93606.78;5039765;28;20061;-75
2022/03/08 07:55:38;;;;;;;15.25;9.00;;;;;;;0.78;57.26;93635.50;5021844;28;20029;-75
2022/03/08 07:58:04;;;;;;;18.85;9.27;;;;;;;0.76;56.97;93638.38;5019720;28;20048;-75
2022/03/08 08:00:31;;;;;;;16.80;9.65;;;;;;;0.52;56.69;93602.41;5025959;28;20088;-74
2022/03/08 08:02:57;;;;;;;19.08;8.68;;;;;;;0.49;56.40;93621.25;5043204;28;20033;-72
2022/03/08 08:05:23;;;;;;;18.73;9.27;;;;;;;0.44;56.58;93635.09;5019597;28;20082;-75
2022/03/08 08:07:48;;;;;;;20.50;8.57;;;;;;;0.21;57.28;93635.47;5022940;28;20021;-75
2022/03/08 08:10:14;;;;;;;16.98;9.25;;;;;;;0.18;57.50;93617.69;5016602;28;20049;-75
2022/03/08 08:12:39;;;;;;;20.52;9.95;;;;;;;0.23;57.16;93617.72;5027014;28;20033;-74
2022/03/08 08:15:06;;;;;;;20.63;9.80;;;;;;;0.16;57.48;93635.44;5021662;28;20860;-75
2022/03/08 08:17:33;;;;;;;22.85;10.15;;;;;;;0.04;57.31;93632.25;5024202;28;20071;-74
2022/03/08 08:19:59;;;;;;;16.88;10.18;;;;;;;0.14;57.48;93627.06;5024072;28;20037;-75
2022/03/08 08:22:24;;;;;;;13.63;8.80;;;;;;;0.30;57.41;93639.22;5021862;28;20061;-75
2022/03/08 08:24:50;;;;;;;16.00;9.13;;;;;;;0.16;57.71;93641.47;5023889;28;20530;-76
2022/03/08 08:27:15;;;;;;;16.77;9.18;;;;;;;0.12;57.50;93627.31;5021165;28;20037;-75
2022/03/08 08:29:41;;;;;;;15.23;9.48;;;;;;;-0.05;57.13;93618.06;5026286;28;20052;-74
2022/03/08 08:32:06;;;;;;;14.90;8.15;;;;;;;-0.03;57.63;93631.66;5020778;28;20046;-76
2022/03/08 08:34:32;;;;;;;18.70;8.95;;;;;;;0.19;57.46;93643.59;5022984;28;20025;-74
2022/03/08 08:36:58;;;;;;;20.48;10.13;;;;;;;0.15;57.80;93636.50;5025526;28;20033;-75
2022/03/08 08:39:23;;;;;;;24.10;13.00;;;;;;;0.18;57.20;93654.28;5022753;28;20730;-74
2022/03/08 08:41:48;;;;;;;18.75;11.48;;;;;;;0.22;57.31;93655.34;5026092;28;20090;-75
2022/03/08 08:44:14;;;;;;;28.77;13.20;;;;;;;0.33;56.62;93654.38;5026144;28;20150;-75
2022/03/08 08:46:39;;;;;;;23.52;9.45;;;;;;;0.07;56.67;93636.94;5024317;28;20013;-75
2022/03/08 08:49:05;;;;;;;15.38;8.90;;;;;;;0.23;56.62;93654.31;5023454;28;20618;-75
2022/03/08 08:51:35;;;;;;;21.75;12.90;;;;;;;0.22;56.86;93660.59;5024158;28;20043;-75
2022/03/08 08:54:01;;;;;;;18.95;10.32;;;;;;;-0.72;56.15;93495.81;5038982;28;20049;-74
2022/03/08 08:56:27;;;;;;;31.95;16.75;;;;;;;0.21;55.99;93638.09;5017388;28;20048;-75
2022/03/08 08:58:52;;;;;;;22.23;11.57;;;;;;;0.36;55.72;93659.09;5027396;28;20395;-75
2022/03/08 09:01:18;;;;;;;23.38;12.00;;;;;;;0.19;55.82;93632.34;5019293;28;20040;-74
2022/03/08 09:03:43;;;;;;;19.58;10.60;;;;;;;0.45;55.54;93656.81;5022730;28;20033;-75
2022/03/08 09:06:09;;;;;;;21.88;12.38;;;;;;;0.28;55.41;93636.84;5024505;28;20068;-71
2022/03/08 09:08:34;;;;;;;23.40;12.85;;;;;;;0.31;55.39;93625.06;5018953;28;20068;-72
2022/03/08 09:11:01;;;;;;;26.15;12.80;;;;;;;0.10;56.14;93623.38;5029667;28;20032;-72
2022/03/08 09:13:26;;;;;;;23.70;11.77;;;;;;;0.26;55.23;93638.09;5028953;28;20041;-71
2022/03/08 09:15:52;;;;;;;22.95;10.63;;;;;;;0.22;54.97;93621.34;5022023;28;20479;-71
2022/03/08 09:18:18;;;;;;;22.08;11.38;;;;;;;-0.23;55.28;93570.38;5019479;28;20140;-71
2022/03/08 09:20:44;;;;;;;27.33;12.35;;;;;;;0.48;55.28;93651.84;5023928;28;20057;-73
2022/03/08 09:23:09;;;;;;;23.08;10.70;;;;;;;0.57;54.63;93658.19;5018505;28;20033;-73
2022/03/08 09:25:36;;;;;;;23.45;11.57;;;;;;;0.19;55.33;93659.28;5016541;28;20682;-77
2022/03/08 09:28:02;;;;;;;28.02;13.73;;;;;;;0.39;55.45;93663.84;5026439;28;20044;-76
2022/03/08 09:30:28;;;;;;;18.45;10.40;;;;;;;0.39;55.07;93669.06;5021201;28;20094;-77
2022/03/08 09:32:56;;;;;;;22.58;11.80;;;;;;;-0.07;54.80;93619.09;5027356;28;20052;-76
2022/03/08 09:35:22;;;;;;;26.63;12.07;;;;;;;0.08;54.65;93631.47;5019077;28;20671;-76
2022/03/08 09:37:48;;;;;;;25.70;12.98;;;;;;;0.19;55.03;93653.25;5027306;28;20031;-75
2022/03/08 09:40:13;;;;;;;23.75;12.75;;;;;;;0.24;55.55;93655.91;5019089;28;20035;-77
2022/03/08 09:42:39;;;;;;;26.60;12.23;;;;;;;0.24;54.58;93635.78;5025152;28;21492;-77
2022/03/08 09:45:05;;;;;;;21.88;12.07;;;;;;;0.21;54.64;93630.25;5025169;28;20116;-76
2022/03/08 09:47:30;;;;;;;24.83;12.20;;;;;;;0.17;54.58;93648.25;5023593;28;20502;-76
2022/03/08 09:49:56;;;;;;;28.70;13.18;;;;;;;0.28;54.27;93662.19;5015347;28;20033;-73
2022/03/08 09:52:23;;;;;;;28.70;13.68;;;;;;;0.21;54.50;93662.41;5015692;28;20044;-77
2022/03/08 09:54:48;;;;;;;24.17;11.52;;;;;;;0.24;54.10;93651.47;5016409;28;20561;-76
2022/03/08 09:57:15;;;;;;;25.98;11.60;;;;;;;-0.10;54.13;93660.66;5018757;28;20037;-77
2022/03/08 09:59:41;;;;;;;21.52;11.55;;;;;;;-0.23;54.61;93655.81;5014358;28;20033;-76
2022/03/08 10:02:07;;;;;;;26.95;11.55;;;;;;;-0.27;54.64;93658.16;5019772;28;20431;-73
2022/03/08 10:04:34;;;;;;;29.02;13.70;;;;;;;-0.23;55.76;93656.59;5018841;28;20032;-75
2022/03/08 10:07:06;;;;;;;28.55;13.27;;;;;;;-0.14;55.71;93638.66;5020973;28;20041;-75
2022/03/08 10:09:32;;;;;;;24.38;12.73;;;;;;;-0.14;55.54;93643.88;5017589;28;20107;-76
2022/03/08 10:11:57;;;;;;;25.55;13.38;;;;;;;-0.12;55.36;93652.25;5016802;28;20075;-76
2022/03/08 10:14:38;;;;;;;21.25;11.32;;;;;;;-0.09;56.00;93672.66;5021004;28;20589;-75
2022/03/08 10:17:08;;;;;;;28.42;14.38;;;;;;;0.13;54.89;93665.50;5019318;28;20028;-76
2022/03/08 10:19:49;;;;;;;35.15;16.08;;;;;;;0.13;55.38;93664.72;5020997;28;20079;-78
2022/03/08 10:22:30;;;;;;;30.23;13.32;;;;;;;0.11;55.32;93667.56;5020925;28;20045;-75
2022/03/08 10:25:18;;;;;;;24.77;14.52;;;;;;;0.09;55.13;93666.25;5025775;28;20548;-77
2022/03/08 10:27:50;;;;;;;28.17;13.48;;;;;;;0.08;55.51;93667.28;5022013;28;20040;-75
2022/03/08 10:30:15;;;;;;;26.73;12.40;;;;;;;-0.07;55.72;93645.25;5017914;28;21194;-77
2022/03/08 10:32:40;;;;;;;24.60;12.43;;;;;;;0.15;55.74;93649.56;5020250;28;20124;-77
2022/03/08 10:35:08;;;;;;;26.63;13.55;;;;;;;0.13;55.41;93655.03;5017146;28;20238;-76
2022/03/08 10:37:39;;;;;;;23.85;13.13;;;;;;;0.40;55.12;93665.41;5021310;28;20597;-76
2022/03/08 10:40:10;;;;;;;29.92;15.90;;;;;;;0.35;54.80;93636.59;5014144;28;20037;-75
2022/03/08 10:42:39;;;;;;;26.63;13.43;;;;;;;0.40;54.32;93654.94;5023242;28;20037;-76
2022/03/08 10:45:10;;;;;;;28.05;14.25;;;;;;;0.40;54.56;93657.53;5022500;28;20054;-77
2022/03/08 10:47:43;;;;;;;23.60;13.43;;;;;;;0.44;54.43;93657.84;5019777;28;22134;-77
2022/03/08 10:50:16;;;;;;;27.33;13.32;;;;;;;0.58;54.63;93646.66;5018162;28;20555;-77
2022/03/08 10:52:44;;;;;;;28.48;14.35;;;;;;;0.39;53.92;93637.69;5019634;28;20115;-77
2022/03/08 10:55:14;;;;;;;25.65;13.23;;;;;;;0.40;53.95;93654.16;5034982;28;20612;-77
2022/03/08 10:57:42;;;;;;;29.95;13.48;;;;;;;0.08;54.88;93628.06;5020467;28;20029;-73
2022/03/08 11:00:12;;;;;;;31.40;12.88;;;;;;;0.47;55.21;93659.94;5021834;28;20041;-74
2022/03/08 11:02:57;;;;;;;25.92;12.32;;;;;;;0.42;54.77;93658.09;5027269;28;20037;-76
2022/03/08 11:05:25;;;;;;;31.75;12.50;;;;;;;0.39;54.46;93663.84;5015383;28;20044;-76
2022/03/08 11:07:52;;;;;;;28.52;12.30;;;;;;;0.43;53.52;93636.13;5019109;28;20021;-76
2022/03/08 11:10:19;;;;;;;23.40;11.73;;;;;;;0.42;53.98;93647.63;5027671;28;20044;-77
2022/03/08 11:12:45;;;;;;;24.55;11.05;;;;;;;0.48;53.58;93659.69;5019681;28;20067;-76
2022/03/08 11:15:14;;;;;;;22.48;11.77;;;;;;;0.57;53.47;93654.75;5024303;28;20637;-77
2022/03/08 11:17:42;;;;;;;21.92;11.48;;;;;;;0.63;54.06;93654.53;5024314;28;20495;-77
2022/03/08 11:20:09;;;;;;;19.17;9.63;;;;;;;0.63;53.94;93638.84;5025412;28;20031;-76
2022/03/08 11:22:36;;;;;;;20.05;11.63;;;;;;;0.60;54.02;93641.94;5028560;28;20499;-73
2022/03/08 11:25:04;;;;;;;35.10;15.95;;;;;;;0.75;54.71;93636.00;5020058;28;20727;-77